Time;durP1;ratioP1;P1;durP2;ratioP2;P2;SDS_P1;SDS_P2;PMS_P1;PMS_P2;Temp;Humidity;BMP_temperature;BMP_pressure;BME280_temperature;BME280_humidity;BME280_pressure;Samples;Min_cycle;Max_cycle;Signal;HPM_P1;HPM_P2
2023/04/07 00:01:57;;;;;;;11.17;10.13;;;;;;;7.27;49.91;99314.44;5052360;28;20192;-75
2023/04/07 00:04:24;;;;;;;10.27;9.37;;;;;;;7.14;49.25;99315.03;5051952;28;20226;-76
2023/04/07 00:06:51;;;;;;;9.10;8.40;;;;;;;7.20;49.24;99324.06;5052156;28;20195;-76
2023/04/07 00:09:17;;;;;;;10.60;9.67;;;;;;;7.23;49.67;99323.72;5052194;28;20258;-76
2023/04/07 00:11:47;;;;;;;10.17;9.37;;;;;;;7.18;49.88;99320.81;5052012;28;20195;-76
2023/04/07 00:14:14;;;;;;;9.80;9.13;;;;;;;7.17;49.77;99319.13;5060347;28;20197;-76
2023/04/07 00:16:40;;;;;;;9.03;8.40;;;;;;;7.02;48.48;99321.75;5071991;28;20253;-76
2023/04/07 00:19:07;;;;;;;10.57;9.57;;;;;;;7.16;48.67;99326.25;5072034;28;20249;-75
2023/04/07 00:21:34;;;;;;;10.03;9.23;;;;;;;7.25;48.40;99325.19;5071657;28;20583;-76
2023/04/07 00:24:01;;;;;;;10.70;9.80;;;;;;;7.27;48.33;99322.38;5070218;28;20196;-76
2023/04/07 00:26:30;;;;;;;11.40;10.43;;;;;;;7.21;48.27;99320.44;5071460;28;20590;-76
2023/04/07 00:28:58;;;;;;;11.23;10.03;;;;;;;7.24;48.23;99320.06;5071519;28;20340;-76
2023/04/07 00:31:25;;;;;;;9.63;8.80;;;;;;;7.20;48.55;99318.78;5070393;28;20241;-76
2023/04/07 00:33:51;;;;;;;10.87;9.97;;;;;;;7.27;49.23;99319.72;5072012;28;20227;-76
2023/04/07 00:36:18;;;;;;;10.80;9.93;;;;;;;7.21;48.45;99317.78;5071487;28;20196;-76
2023/04/07 00:38:45;;;;;;;10.50;9.70;;;;;;;7.21;48.93;99323.91;5071635;28;20810;-77
2023/04/07 00:41:12;;;;;;;10.50;9.60;;;;;;;7.22;48.61;99316.81;5071707;28;20191;-76
2023/04/07 00:43:39;;;;;;;11.10;9.40;;;;;;;7.17;48.80;99322.63;5071576;28;20669;-77
2023/04/07 00:46:07;;;;;;;9.20;8.43;;;;;;;7.02;49.54;99326.22;5068461;28;20323;-77
2023/04/07 00:48:34;;;;;;;9.63;8.93;;;;;;;6.91;49.96;99324.00;5051594;28;20196;-77
2023/04/07 00:51:01;;;;;;;10.27;9.37;;;;;;;6.96;49.16;99321.63;5051765;28;20197;-77
2023/04/07 00:53:28;;;;;;;10.47;9.57;;;;;;;6.90;49.60;99322.34;5051623;28;20286;-78
2023/04/07 00:55:55;;;;;;;10.40;9.63;;;;;;;6.84;50.02;99323.03;5051727;28;20261;-78
2023/04/07 00:58:22;;;;;;;9.80;9.13;;;;;;;6.88;49.21;99327.81;5051697;28;20258;-76
2023/04/07 01:00:51;;;;;;;9.00;8.10;;;;;;;6.77;49.00;99317.66;5051228;28;20246;-75
2023/04/07 01:03:27;;;;;;;9.27;8.47;;;;;;;6.80;48.13;99321.75;5051279;28;20695;-76
2023/04/07 01:05:59;;;;;;;9.87;9.00;;;;;;;6.73;48.85;99320.84;5051119;28;20188;-77
2023/04/07 01:08:33;;;;;;;9.50;8.70;;;;;;;6.74;48.93;99319.81;5051233;28;20243;-77
2023/04/07 01:11:07;;;;;;;10.37;9.53;;;;;;;6.65;48.81;99313.78;5062680;28;20187;-77
2023/04/07 01:13:37;;;;;;;10.47;9.40;;;;;;;6.65;49.40;99320.88;5071431;28;20268;-77
2023/04/07 01:16:11;;;;;;;9.43;8.73;;;;;;;6.61;49.60;99311.69;5071403;28;20194;-77
2023/04/07 01:18:40;;;;;;;9.37;8.47;;;;;;;6.47;49.99;99320.31;5071161;28;20569;-77
2023/04/07 01:21:13;;;;;;;10.23;9.10;;;;;;;6.62;49.68;99313.31;5071394;28;20200;-77
2023/04/07 01:23:52;;;;;;;9.90;9.00;;;;;;;6.60;49.63;99316.13;5071145;28;20192;-77
2023/04/07 01:26:21;;;;;;;9.83;8.90;;;;;;;6.53;49.40;99325.72;5071330;28;20245;-77
2023/04/07 01:29:11;;;;;;;9.33;8.67;;;;;;;6.50;49.43;99319.97;5071415;28;20224;-76
2023/04/07 01:31:40;;;;;;;9.87;9.07;;;;;;;6.47;49.84;99315.88;5071280;28;20228;-76
2023/04/07 01:34:10;;;;;;;12.63;9.33;;;;;;;6.42;49.50;99322.66;5068638;28;20724;-79
2023/04/07 01:36:37;;;;;;;9.73;8.90;;;;;;;6.50;49.83;99325.25;5071350;28;20232;-80
2023/04/07 01:39:05;;;;;;;11.57;9.53;;;;;;;6.45;49.96;99332.88;5071486;28;20234;-79
2023/04/07 01:41:33;;;;;;;9.53;8.67;;;;;;;6.46;50.29;99329.25;5074796;28;20196;-79
2023/04/07 01:44:01;;;;;;;10.20;9.10;;;;;;;6.28;50.16;99316.31;5075042;28;20203;-78
2023/04/07 01:46:28;;;;;;;9.77;9.03;;;;;;;6.43;50.24;99334.84;5074491;28;20755;-79
2023/04/07 01:48:57;;;;;;;10.47;9.47;;;;;;;6.45;50.22;99336.31;5074957;28;20624;-78
2023/04/07 01:51:26;;;;;;;9.50;8.53;;;;;;;6.38;50.43;99326.66;5074320;28;20251;-78
2023/04/07 01:53:53;;;;;;;9.17;8.47;;;;;;;6.36;49.75;99329.47;5074222;28;20224;-77
2023/04/07 01:56:20;;;;;;;10.07;9.07;;;;;;;6.19;49.85;99329.72;5074292;28;20253;-78
2023/04/07 01:58:47;;;;;;;9.03;8.27;;;;;;;6.24;49.72;99324.75;5072693;28;20255;-76
2023/04/07 02:01:14;;;;;;;9.10;8.17;;;;;;;6.25;50.49;99331.66;5054326;28;20192;-78
2023/04/07 02:03:45;;;;;;;8.73;8.10;;;;;;;6.35;49.20;99329.63;5054581;28;20253;-79
2023/04/07 02:06:17;;;;;;;8.73;7.87;;;;;;;6.39;49.71;99329.13;5054483;28;20238;-77
2023/04/07 02:08:48;;;;;;;9.47;8.70;;;;;;;6.48;49.42;99332.50;5054336;28;20218;-78
2023/04/07 02:11:18;;;;;;;9.47;8.67;;;;;;;6.47;49.85;99330.88;5054400;28;20193;-78
2023/04/07 02:13:46;;;;;;;9.27;8.40;;;;;;;6.59;49.23;99337.41;5053872;28;20705;-78
2023/04/07 02:16:13;;;;;;;9.13;8.23;;;;;;;6.45;48.78;99324.97;5054286;28;20197;-78
2023/04/07 02:18:41;;;;;;;8.93;8.20;;;;;;;6.51;47.47;99329.53;5053855;28;20611;-78
2023/04/07 02:21:10;;;;;;;8.43;7.63;;;;;;;6.51;48.18;99326.91;5053918;28;20196;-78
2023/04/07 02:23:38;;;;;;;12.17;8.57;;;;;;;6.59;47.58;99329.50;5053805;28;20701;-78
2023/04/07 02:26:05;;;;;;;9.83;8.87;;;;;;;6.57;48.21;99327.03;5068488;28;20245;-78
2023/04/07 02:28:32;;;;;;;8.73;8.13;;;;;;;6.56;48.62;99322.75;5073931;28;20227;-78
2023/04/07 02:30:58;;;;;;;9.07;8.30;;;;;;;6.62;48.61;99334.41;5073701;28;20647;-78
2023/04/07 02:33:25;;;;;;;8.93;7.50;;;;;;;6.58;48.64;99331.31;5073808;28;20246;-78
2023/04/07 02:35:52;;;;;;;8.80;8.20;;;;;;;6.72;48.04;99329.72;5073641;28;20246;-78
2023/04/07 02:38:18;;;;;;;8.93;8.33;;;;;;;6.67;47.97;99337.34;5073456;28;20736;-78
2023/04/07 02:40:46;;;;;;;9.67;8.70;;;;;;;6.55;48.59;99330.84;5074026;28;20233;-78
2023/04/07 02:43:15;;;;;;;8.43;7.90;;;;;;;6.59;48.77;99334.75;5073749;28;20195;-78
2023/04/07 02:45:42;;;;;;;9.50;8.70;;;;;;;6.64;48.74;99327.97;5073826;28;20210;-79
2023/04/07 02:48:08;;;;;;;10.20;9.23;;;;;;;6.46;49.47;99334.53;5073268;28;20187;-79
2023/04/07 02:50:35;;;;;;;9.03;8.30;;;;;;;6.42;49.89;99334.06;5073252;28;20193;-78
2023/04/07 02:53:02;;;;;;;10.43;8.43;;;;;;;6.38;50.35;99338.03;5070766;28;20211;-77
2023/04/07 02:55:28;;;;;;;9.93;8.90;;;;;;;6.36;50.14;99331.28;5072007;28;20200;-77
2023/04/07 02:57:56;;;;;;;8.73;8.13;;;;;;;6.26;50.68;99325.38;5073130;28;20657;-78
2023/04/07 03:00:23;;;;;;;9.03;8.17;;;;;;;6.25;50.51;99336.94;5073373;28;20322;-77
2023/04/07 03:02:50;;;;;;;12.53;8.13;;;;;;;6.12;51.26;99336.69;5072985;28;20254;-75
2023/04/07 03:05:17;;;;;;;9.40;8.70;;;;;;;6.06;51.10;99332.91;5072981;28;20201;-76
2023/04/07 03:07:43;;;;;;;10.10;9.20;;;;;;;6.06;51.48;99334.72;5073177;28;20191;-77
2023/04/07 03:10:11;;;;;;;9.23;8.43;;;;;;;6.06;51.56;99332.06;5072946;28;20251;-77
2023/04/07 03:12:37;;;;;;;9.17;8.30;;;;;;;5.94;51.64;99333.44;5072901;28;20241;-78
2023/04/07 03:15:07;;;;;;;9.60;8.80;;;;;;;5.94;51.46;99333.44;5073142;28;20231;-79
2023/04/07 03:17:33;;;;;;;8.67;7.87;;;;;;;6.05;50.91;99330.44;5072920;28;20280;-79
2023/04/07 03:20:00;;;;;;;9.03;8.33;;;;;;;6.00;50.57;99330.13;5072635;28;20195;-80
2023/04/07 03:22:27;;;;;;;9.53;8.27;;;;;;;6.06;50.48;99329.44;5059466;28;20198;-79
2023/04/07 03:24:54;;;;;;;9.63;8.60;;;;;;;6.14;50.57;99332.03;5053864;28;20202;-78
2023/04/07 03:27:21;;;;;;;9.23;8.43;;;;;;;6.18;50.00;99341.25;5072774;28;20232;-77
2023/04/07 03:29:47;;;;;;;9.33;8.53;;;;;;;6.22;50.81;99334.66;5067666;28;20193;-78
2023/04/07 03:32:15;;;;;;;9.57;8.67;;;;;;;6.10;50.61;99336.84;5052768;28;20194;-77
2023/04/07 03:34:42;;;;;;;9.60;8.83;;;;;;;6.05;50.74;99330.44;5052306;28;20697;-78
2023/04/07 03:37:08;;;;;;;10.23;9.33;;;;;;;5.97;50.94;99341.84;5052675;28;20196;-78
2023/04/07 03:39:36;;;;;;;9.40;8.40;;;;;;;6.00;50.73;99344.13;5052621;28;20246;-78
2023/04/07 03:42:03;;;;;;;9.37;8.57;;;;;;;6.05;51.04;99351.53;5053629;28;20221;-78
2023/04/07 03:44:29;;;;;;;9.57;8.83;;;;;;;6.06;51.11;99348.72;5052360;28;20201;-79
2023/04/07 03:46:56;;;;;;;9.50;8.70;;;;;;;5.99;51.19;99354.84;5052724;28;20199;-78
2023/04/07 03:49:24;;;;;;;12.57;8.33;;;;;;;6.00;50.83;99354.66;5052333;28;20198;-77
2023/04/07 03:51:51;;;;;;;10.87;9.43;;;;;;;6.11;50.68;99358.75;5052403;28;20192;-77
2023/04/07 03:54:18;;;;;;;15.43;9.07;;;;;;;6.09;50.64;99358.94;5051927;28;20227;-77
2023/04/07 03:56:45;;;;;;;10.07;9.07;;;;;;;6.13;50.61;99359.41;5052544;28;20203;-77
2023/04/07 03:59:11;;;;;;;10.53;9.17;;;;;;;6.06;50.34;99359.28;5052251;28;20202;-77
2023/04/07 04:01:38;;;;;;;10.07;9.20;;;;;;;6.02;50.17;99368.50;5051873;28;20200;-80
2023/04/07 04:04:05;;;;;;;10.27;9.17;;;;;;;6.05;50.45;99365.53;5051355;28;20686;-79
2023/04/07 04:06:33;;;;;;;9.07;8.27;;;;;;;6.22;50.51;99364.47;5051699;28;20198;-79
2023/04/07 04:09:00;;;;;;;14.47;8.90;;;;;;;6.28;50.41;99362.97;5052826;28;20390;-79
2023/04/07 04:11:27;;;;;;;14.80;8.57;;;;;;;6.25;49.99;99355.41;5052133;28;20197;-80
2023/04/07 04:13:53;;;;;;;14.87;9.13;;;;;;;6.43;49.10;99361.25;5051939;28;20223;-80
2023/04/07 04:16:21;;;;;;;14.47;9.20;;;;;;;6.45;49.04;99369.81;5052070;28;20197;-81
2023/04/07 04:18:48;;;;;;;8.83;8.00;;;;;;;6.50;48.56;99367.47;5051933;28;20196;-80
2023/04/07 04:21:14;;;;;;;11.67;10.63;;;;;;;6.57;48.73;99379.00;5052066;28;20256;-80
2023/04/07 04:23:42;;;;;;;10.27;9.27;;;;;;;6.65;48.19;99377.09;5051574;28;20192;-80
2023/04/07 04:26:09;;;;;;;14.97;9.67;;;;;;;6.84;49.23;99389.88;5063281;28;20273;-80
2023/04/07 04:28:36;;;;;;;11.03;9.33;;;;;;;7.02;48.27;99389.59;5071486;28;20285;-78
2023/04/07 04:31:02;;;;;;;11.83;10.47;;;;;;;7.11;46.80;99391.16;5071587;28;20199;-79
2023/04/07 04:33:30;;;;;;;14.23;11.07;;;;;;;7.42;46.71;99399.81;5071824;28;20701;-77
2023/04/07 04:35:56;;;;;;;12.90;10.53;;;;;;;7.94;45.54;99398.00;5071891;28;20196;-81
2023/04/07 04:38:23;;;;;;;12.87;10.17;;;;;;;8.13;44.49;99386.91;5068072;28;20241;-80
2023/04/07 04:40:51;;;;;;;17.70;11.07;;;;;;;8.45;44.35;99397.13;5052072;28;20547;-79
2023/04/07 04:43:18;;;;;;;14.83;10.60;;;;;;;8.52;43.92;99403.28;5051602;28;20258;-80
2023/04/07 04:45:44;;;;;;;14.70;11.07;;;;;;;8.46;43.68;99404.06;5052255;28;20204;-80
2023/04/07 04:48:11;;;;;;;17.17;10.60;;;;;;;8.45;43.27;99397.13;5051404;28;20227;-79
2023/04/07 04:50:38;;;;;;;18.13;10.13;;;;;;;8.49;43.70;99414.28;5050951;28;20193;-80
2023/04/07 04:53:05;;;;;;;19.63;10.33;;;;;;;8.46;43.66;99409.34;5051296;28;20666;-80
2023/04/07 04:55:31;;;;;;;18.47;10.80;;;;;;;8.45;43.51;99418.28;5051289;28;20228;-79
2023/04/07 04:58:00;;;;;;;20.73;9.83;;;;;;;8.30;42.70;99413.00;5051532;28;20246;-81
2023/04/07 05:00:26;;;;;;;14.10;10.40;;;;;;;8.27;43.30;99423.97;5051225;28;20725;-80
2023/04/07 05:02:53;;;;;;;17.67;10.60;;;;;;;8.25;43.51;99422.50;5065183;28;20253;-79
2023/04/07 05:05:20;;;;;;;14.00;10.07;;;;;;;8.32;43.42;99418.94;5071569;28;20277;-77
2023/04/07 05:07:46;;;;;;;14.43;9.43;;;;;;;8.48;42.38;99428.50;5069706;28;20200;-78
2023/04/07 05:10:13;;;;;;;18.57;9.50;;;;;;;8.63;43.49;99426.66;5070057;28;20246;-79
2023/04/07 05:12:40;;;;;;;16.17;9.30;;;;;;;8.87;41.59;99423.69;5071077;28;20669;-81
2023/04/07 05:15:09;;;;;;;23.70;9.73;;;;;;;8.98;40.70;99431.13;5074448;28;20277;-81
2023/04/07 05:17:36;;;;;;;19.90;9.70;;;;;;;9.11;40.45;99410.91;5075216;28;20347;-81
2023/04/07 05:20:04;;;;;;;25.70;9.67;;;;;;;9.55;39.95;99431.91;5075039;28;20196;-81
2023/04/07 05:22:30;;;;;;;13.80;9.77;;;;;;;9.72;39.44;99438.59;5074717;28;20196;-80
2023/04/07 05:24:57;;;;;;;24.17;10.17;;;;;;;9.74;40.00;99444.53;5074253;28;20226;-77
2023/04/07 05:27:24;;;;;;;21.77;10.87;;;;;;;9.76;41.21;99445.97;5073926;28;20223;-79
2023/04/07 05:29:51;;;;;;;35.57;9.50;;;;;;;9.69;42.10;99438.97;5072959;28;20586;-81
2023/04/07 05:32:20;;;;;;;40.20;9.93;;;;;;;10.00;45.98;99434.09;5074178;28;20253;-82
2023/04/07 05:34:46;;;;;;;25.90;9.77;;;;;;;10.48;42.57;99444.66;5074324;28;20232;-79
2023/04/07 05:37:13;;;;;;;12.40;8.43;;;;;;;10.28;37.45;99449.03;5073026;28;20203;-80
2023/04/07 05:39:40;;;;;;;8.27;7.47;;;;;;;10.25;37.22;99452.06;5069236;28;20345;-79
2023/04/07 05:42:06;;;;;;;11.53;9.37;;;;;;;10.43;37.62;99454.22;5073154;28;20195;-78
2023/04/07 05:44:36;;;;;;;29.00;10.67;;;;;;;10.81;36.96;99445.63;5073443;28;20716;-77
2023/04/07 05:47:04;;;;;;;58.73;11.93;;;;;;;11.21;36.39;99445.72;5067116;28;20203;-75
2023/04/07 05:49:32;;;;;;;12.43;7.80;;;;;;;11.47;35.80;99451.91;5070098;28;20193;-74
2023/04/07 05:51:59;;;;;;;9.17;7.23;;;;;;;11.42;35.55;99437.59;5062074;28;20220;-72
2023/04/07 05:54:26;;;;;;;80.40;11.30;;;;;;;11.43;35.31;99455.19;5053576;28;20216;-77
2023/04/07 05:56:53;;;;;;;8.30;6.67;;;;;;;11.32;41.34;99445.97;5065002;28;20196;-79
2023/04/07 05:59:20;;;;;;;14.00;8.23;;;;;;;11.59;37.94;99444.19;5073766;28;20747;-78
2023/04/07 06:01:46;;;;;;;17.03;7.67;;;;;;;11.70;36.19;99415.16;5073893;28;20198;-74
2023/04/07 06:04:13;;;;;;;11.50;7.67;;;;;;;12.00;35.63;99444.81;5073025;28;20206;-75
2023/04/07 06:06:41;;;;;;;14.80;8.03;;;;;;;12.12;34.66;99459.16;5076754;28;20204;-74
2023/04/07 06:09:08;;;;;;;11.33;7.37;;;;;;;12.00;33.96;99456.28;5076763;28;20196;-75
2023/04/07 06:11:35;;;;;;;10.10;7.67;;;;;;;11.98;33.89;99454.84;5085019;28;20600;-75
2023/04/07 06:14:02;;;;;;;11.50;8.53;;;;;;;12.04;33.90;99462.03;5073444;28;20221;-74
2023/04/07 06:16:29;;;;;;;22.20;10.90;;;;;;;12.29;34.26;99457.69;5072321;28;20566;-75
2023/04/07 06:18:55;;;;;;;8.63;7.23;;;;;;;12.13;33.54;99456.25;5068541;28;20285;-77
2023/04/07 06:21:22;;;;;;;9.50;8.07;;;;;;;12.03;33.73;99458.53;5070778;28;20194;-73
2023/04/07 06:23:50;;;;;;;12.13;7.80;;;;;;;12.31;33.47;99464.44;5093907;28;20215;-79
2023/04/07 06:26:17;;;;;;;32.10;9.70;;;;;;;12.28;33.01;99461.34;5071602;28;20921;-75
2023/04/07 06:28:44;;;;;;;31.90;8.80;;;;;;;12.30;33.48;99467.31;5070463;28;20276;-76
2023/04/07 06:31:11;;;;;;;7.67;6.87;;;;;;;12.29;33.31;99463.00;5066544;28;20889;-80
2023/04/07 06:33:37;;;;;;;9.27;7.30;;;;;;;12.03;32.81;99469.19;5070058;28;20201;-78
2023/04/07 06:36:04;;;;;;;17.27;8.67;;;;;;;12.04;33.93;99465.47;5070178;28;20233;-76
2023/04/07 06:38:31;;;;;;;9.10;7.97;;;;;;;12.47;33.89;99472.00;5068448;28;20247;-80
2023/04/07 06:40:59;;;;;;;10.17;8.30;;;;;;;13.00;32.35;99472.66;5080241;28;20197;-77
2023/04/07 06:43:26;;;;;;;131.43;13.47;;;;;;;13.09;31.13;99466.88;5072342;28;20671;-78
2023/04/07 06:45:53;;;;;;;8.47;6.77;;;;;;;13.31;30.99;99473.53;5071788;28;20199;-76
2023/04/07 06:48:20;;;;;;;7.17;6.57;;;;;;;13.24;31.02;99474.59;5072694;28;20351;-78
2023/04/07 06:50:47;;;;;;;7.27;6.40;;;;;;;13.08;30.39;99481.25;5072263;28;20195;-76
2023/04/07 06:53:14;;;;;;;17.37;6.90;;;;;;;13.55;30.22;99478.09;5067926;28;20188;-78
2023/04/07 06:55:41;;;;;;;19.90;8.03;;;;;;;13.94;30.01;99483.16;5068283;28;20220;-79
2023/04/07 06:58:09;;;;;;;8.03;7.10;;;;;;;14.15;29.61;99477.44;5072375;28;20245;-81
2023/04/07 07:00:36;;;;;;;171.23;19.73;;;;;;;14.29;29.20;99483.50;5072775;28;20555;-81
2023/04/07 07:03:02;;;;;;;8.50;6.93;;;;;;;14.29;29.15;99484.31;5066754;28;20189;-79
2023/04/07 07:05:29;;;;;;;6.83;6.33;;;;;;;14.08;29.82;99484.69;5056882;28;20199;-78
2023/04/07 07:07:56;;;;;;;7.90;6.40;;;;;;;14.53;29.46;99480.78;5063944;28;20222;-77
2023/04/07 07:10:23;;;;;;;14.33;7.47;;;;;;;15.32;28.03;99476.13;5054392;28;20196;-79
2023/04/07 07:12:49;;;;;;;37.27;7.50;;;;;;;15.93;28.06;99476.66;5069950;28;20196;-82
2023/04/07 07:15:18;;;;;;;93.87;11.80;;;;;;;15.65;26.77;99464.97;5064820;28;20887;-78
2023/04/07 07:17:44;;;;;;;14.63;6.37;;;;;;;15.44;26.97;99460.94;5061783;28;20197;-78
2023/04/07 07:20:11;;;;;;;20.73;7.57;;;;;;;15.45;26.75;99477.84;5057321;28;20192;-79
2023/04/07 07:22:38;;;;;;;7.67;6.60;;;;;;;15.19;26.80;99484.31;5072189;28;20716;-78
2023/04/07 07:25:06;;;;;;;26.43;6.43;;;;;;;15.09;26.90;99481.38;5072153;28;20196;-77
2023/04/07 07:27:32;;;;;;;10.57;6.00;;;;;;;15.08;27.18;99498.44;5070183;28;20708;-74
2023/04/07 07:29:59;;;;;;;7.17;6.03;;;;;;;15.54;26.93;99479.97;5068797;28;20635;-79
2023/04/07 07:32:27;;;;;;;8.23;5.57;;;;;;;15.83;26.15;99489.84;5068320;28;20207;-78
2023/04/07 07:34:54;;;;;;;37.67;7.80;;;;;;;15.82;26.76;99480.13;5068508;28;20215;-75
2023/04/07 07:37:20;;;;;;;13.07;6.60;;;;;;;15.79;26.66;99480.63;5068343;28;20279;-77
2023/04/07 07:39:47;;;;;;;9.33;6.60;;;;;;;15.54;27.20;99477.28;5068825;28;20742;-77
2023/04/07 07:42:14;;;;;;;9.37;6.20;;;;;;;15.55;26.77;99473.56;5070595;28;20192;-79
2023/04/07 07:44:40;;;;;;;25.53;6.97;;;;;;;15.56;27.21;99480.53;5069908;28;20204;-77
2023/04/07 07:47:07;;;;;;;7.23;5.67;;;;;;;15.34;27.36;99476.75;5069384;28;20192;-80
2023/04/07 07:49:35;;;;;;;10.40;6.73;;;;;;;15.26;27.93;99469.00;5072059;28;20276;-81
2023/04/07 07:52:02;;;;;;;11.63;6.50;;;;;;;15.84;27.22;99479.91;5071080;28;20188;-76
2023/04/07 07:54:28;;;;;;;7.17;6.17;;;;;;;16.04;26.95;99477.75;5071747;28;20191;-81
2023/04/07 07:56:56;;;;;;;7.03;6.50;;;;;;;16.45;26.97;99474.19;5070025;28;20272;-80
2023/04/07 07:59:22;;;;;;;19.97;6.63;;;;;;;16.88;26.76;99474.59;5071879;28;20192;-81
2023/04/07 08:01:49;;;;;;;5.80;5.40;;;;;;;17.04;25.94;99469.31;5070966;28;20242;-79
2023/04/07 08:04:16;;;;;;;6.23;5.63;;;;;;;17.14;25.90;99460.63;5066686;28;20197;-76
2023/04/07 08:06:44;;;;;;;8.30;5.73;;;;;;;17.27;25.37;99463.03;5054711;28;20184;-74
2023/04/07 08:09:11;;;;;;;7.40;6.50;;;;;;;17.43;27.36;99451.56;5071433;28;20253;-76
2023/04/07 08:11:38;;;;;;;9.27;6.40;;;;;;;17.51;25.83;99459.22;5070905;28;20194;-75
2023/04/07 08:14:04;;;;;;;8.47;6.10;;;;;;;16.86;26.47;99457.91;5052249;28;20736;-72
2023/04/07 08:16:31;;;;;;;6.40;5.90;;;;;;;17.42;27.59;99455.28;5051559;28;20232;-74
2023/04/07 08:18:58;;;;;;;6.70;6.30;;;;;;;18.05;25.61;99461.22;5068729;28;20200;-74
2023/04/07 08:21:26;;;;;;;6.50;5.93;;;;;;;18.11;24.89;99465.63;5063147;28;20247;-74
2023/04/07 08:23:55;;;;;;;6.40;5.73;;;;;;;18.35;24.76;99459.03;5064413;28;20573;-78
2023/04/07 08:26:22;;;;;;;16.23;5.60;;;;;;;18.51;24.16;99455.50;5071240;28;20223;-80
2023/04/07 08:28:50;;;;;;;6.23;5.87;;;;;;;18.74;24.48;99444.53;5060068;28;20588;-80
2023/04/07 08:31:17;;;;;;;14.13;6.40;;;;;;;18.88;23.94;99451.97;5051594;28;20201;-77
2023/04/07 08:33:43;;;;;;;5.73;5.13;;;;;;;18.93;22.76;99454.72;5068296;28;20673;-78
2023/04/07 08:36:10;;;;;;;11.83;5.47;;;;;;;19.21;23.29;99451.84;5070961;28;20215;-77
2023/04/07 08:38:37;;;;;;;5.73;5.43;;;;;;;19.26;22.87;99453.78;5057156;28;20192;-73
2023/04/07 08:41:10;;;;;;;6.37;5.67;;;;;;;18.75;23.46;99451.53;5070416;28;20273;-78
2023/04/07 08:43:39;;;;;;;9.03;6.57;;;;;;;18.77;24.04;99447.53;5070574;28;20204;-77
2023/04/07 08:46:09;;;;;;;6.13;5.60;;;;;;;19.04;23.23;99450.28;5057729;28;20198;-81
2023/04/07 08:48:38;;;;;;;7.23;6.07;;;;;;;18.81;23.37;99440.56;5070074;28;20245;-80
2023/04/07 08:51:07;;;;;;;6.30;5.80;;;;;;;18.76;22.78;99445.91;5077522;28;20196;-80
2023/04/07 08:53:42;;;;;;;8.20;6.63;;;;;;;18.34;23.72;99435.91;5076186;28;20196;-79
2023/04/07 08:56:11;;;;;;;6.67;5.87;;;;;;;18.19;23.64;99430.25;5064331;28;20209;-81
2023/04/07 08:58:39;;;;;;;6.17;5.67;;;;;;;18.52;24.44;99433.72;5070849;28;20195;-81
2023/04/07 09:01:06;;;;;;;7.03;5.80;;;;;;;18.45;23.98;99426.88;5075444;28;20193;-80
2023/04/07 09:03:33;;;;;;;46.13;8.73;;;;;;;18.45;24.86;99430.41;5074446;28;20284;-76
2023/04/07 09:06:01;;;;;;;7.50;5.77;;;;;;;18.45;24.38;99429.56;5075221;28;20199;-75
2023/04/07 09:08:27;;;;;;;15.63;6.37;;;;;;;18.74;24.57;99434.56;5075201;28;20193;-73
2023/04/07 09:10:56;;;;;;;17.33;7.07;;;;;;;18.51;24.20;99420.53;5075262;28;20551;-73
2023/04/07 09:13:25;;;;;;;6.43;5.93;;;;;;;18.46;24.81;99425.84;5075198;28;20245;-75
2023/04/07 09:15:52;;;;;;;7.90;5.83;;;;;;;18.61;28.38;99417.97;5071922;28;20220;-69
2023/04/07 09:18:19;;;;;;;8.70;5.60;;;;;;;18.63;23.68;99432.00;5074058;28;20261;-70
2023/04/07 09:20:57;;;;;;;5.87;5.37;;;;;;;18.66;24.73;99426.91;5070799;28;20196;-75
2023/04/07 09:23:31;;;;;;;6.83;5.00;;;;;;;18.73;28.21;99424.03;5054941;28;20273;-85
2023/04/07 09:26:00;;;;;;;8.17;5.67;;;;;;;18.74;28.46;99423.78;5070308;28;20724;-81
2023/04/07 09:28:41;;;;;;;9.90;5.57;;;;;;;19.03;25.71;99424.41;5072977;28;20221;-83
2023/04/07 09:31:08;;;;;;;6.93;5.60;;;;;;;19.54;24.92;99430.13;5073930;28;20491;-82
2023/04/07 09:33:35;;;;;;;5.90;5.23;;;;;;;19.99;24.88;99422.41;5072349;28;20196;-81
2023/04/07 09:36:02;;;;;;;5.60;4.57;;;;;;;20.36;25.18;99414.31;5074239;28;20222;-80
2023/04/07 09:38:36;;;;;;;7.93;5.27;;;;;;;20.84;24.34;99414.03;5070597;28;20201;-89
2023/04/07 09:41:08;;;;;;;6.17;5.77;;;;;;;20.93;21.77;99411.66;5066563;28;20206;-74
2023/04/07 09:43:37;;;;;;;6.07;5.67;;;;;;;20.45;22.93;99421.66;5069380;28;20200;-79
2023/04/07 09:46:10;;;;;;;6.20;5.80;;;;;;;20.51;22.49;99417.13;5073902;28;20279;-77
2023/04/07 09:48:37;;;;;;;6.30;5.70;;;;;;;20.54;22.44;99413.88;5073926;28;20697;-77
2023/04/07 09:51:09;;;;;;;5.83;5.47;;;;;;;20.45;22.02;99412.75;5087691;28;20195;-77
2023/04/07 09:53:47;;;;;;;6.37;5.90;;;;;;;20.30;22.23;99407.28;5094871;28;20248;-75
2023/04/07 09:56:16;;;;;;;5.60;5.30;;;;;;;20.18;22.25;99414.75;5068309;28;20228;-77
2023/04/07 09:58:44;;;;;;;6.73;5.67;;;;;;;19.65;22.81;99402.16;5053066;28;20193;-76
2023/04/07 10:01:15;;;;;;;9.13;5.27;;;;;;;19.72;22.51;99413.56;5052162;28;20193;-76
2023/04/07 10:03:42;;;;;;;7.00;6.40;;;;;;;19.55;22.90;99410.19;5054195;28;20185;-75
2023/04/07 10:06:10;;;;;;;6.60;6.00;;;;;;;19.66;23.52;99411.06;5054400;28;20258;-73
2023/04/07 10:08:39;;;;;;;5.97;5.67;;;;;;;19.68;23.68;99403.53;5053909;28;20189;-74
2023/04/07 10:11:06;;;;;;;17.47;5.90;;;;;;;19.42;23.21;99409.78;5052437;28;20201;-75
2023/04/07 10:13:35;;;;;;;6.10;5.50;;;;;;;18.89;23.51;99409.69;5054035;28;20201;-75
2023/04/07 10:16:04;;;;;;;241.37;20.83;;;;;;;18.89;24.29;99415.09;5054243;28;20233;-75
2023/04/07 10:18:34;;;;;;;6.77;6.30;;;;;;;18.91;23.78;99407.59;5054139;28;20192;-75
2023/04/07 10:21:02;;;;;;;6.73;6.33;;;;;;;18.77;23.47;99403.63;5054375;28;20198;-75
2023/04/07 10:23:39;;;;;;;7.00;6.40;;;;;;;18.82;23.72;99403.69;5054049;28;20287;-75
2023/04/07 10:26:08;;;;;;;7.47;5.93;;;;;;;18.91;24.11;99407.59;5064412;28;20197;-78
2023/04/07 10:28:38;;;;;;;6.60;6.20;;;;;;;18.90;23.86;99411.31;5073656;28;20235;-77
2023/04/07 10:31:13;;;;;;;6.80;6.10;;;;;;;18.82;23.79;99404.50;5066757;28;20191;-74
2023/04/07 10:33:51;;;;;;;6.30;5.80;;;;;;;18.75;23.96;99411.94;5067029;28;20192;-75
2023/04/07 10:36:19;;;;;;;6.20;5.80;;;;;;;18.84;23.38;99404.28;5068095;28;20692;-72
2023/04/07 10:39:19;;;;;;;8.50;7.67;;;;;;;19.00;23.78;99406.91;5058457;28;20292;-76
2023/04/07 10:41:46;;;;;;;11.07;6.60;;;;;;;18.69;23.97;99404.06;5053556;28;20200;-75
2023/04/07 10:44:48;;;;;;;13.00;7.40;;;;;;;18.60;24.62;99400.19;5068455;28;20191;-76
2023/04/07 10:47:15;;;;;;;7.70;5.93;;;;;;;18.75;24.05;99387.72;5080178;28;20685;-78
2023/04/07 10:50:18;;;;;;;7.10;6.70;;;;;;;18.91;23.88;99396.81;5073311;28;20666;-77
2023/04/07 10:52:46;;;;;;;7.70;6.50;;;;;;;19.06;24.27;99394.28;5073683;28;20180;-74
2023/04/07 10:55:33;;;;;;;7.70;6.03;;;;;;;19.22;24.19;99394.19;5069305;28;20361;-75
2023/04/07 10:58:23;;;;;;;7.07;6.40;;;;;;;19.14;23.72;99385.75;5064040;28;20185;-79
2023/04/07 11:01:19;;;;;;;6.97;6.37;;;;;;;18.97;23.81;99374.25;5072968;28;20192;-78
2023/04/07 11:03:59;;;;;;;7.57;7.00;;;;;;;18.51;24.72;99382.88;5072267;28;20645;-79
2023/04/07 11:06:28;;;;;;;7.13;6.63;;;;;;;18.71;24.72;99391.19;5063699;28;20200;-77
2023/04/07 11:08:55;;;;;;;7.57;7.10;;;;;;;18.71;24.67;99385.81;5072640;28;20599;-78
2023/04/07 11:11:41;;;;;;;8.03;7.17;;;;;;;18.88;24.29;99383.84;5072445;28;20197;-78
2023/04/07 11:14:08;;;;;;;15.33;7.20;;;;;;;19.08;24.46;99376.00;5072972;28;20193;-77
2023/04/07 11:16:37;;;;;;;10.73;6.40;;;;;;;19.25;24.25;99387.53;5073113;28;20650;-78
2023/04/07 11:19:04;;;;;;;7.87;7.20;;;;;;;19.24;24.74;99385.91;5072943;28;20193;-77
2023/04/07 11:21:32;;;;;;;7.83;7.33;;;;;;;19.02;24.58;99387.78;5073011;28;20198;-77
2023/04/07 11:23:58;;;;;;;7.53;6.77;;;;;;;18.22;25.61;99397.50;5072912;28;20572;-75
2023/04/07 11:26:26;;;;;;;8.90;6.80;;;;;;;18.06;25.67;99387.59;5072850;28;20257;-77
2023/04/07 11:28:54;;;;;;;7.03;6.43;;;;;;;17.74;26.26;99383.84;5073148;28;20236;-78
2023/04/07 11:31:24;;;;;;;7.40;6.90;;;;;;;17.75;26.24;99377.41;5072546;28;20747;-79
2023/04/07 11:33:55;;;;;;;7.93;7.17;;;;;;;17.82;26.02;99386.13;5072562;28;20257;-79
2023/04/07 11:36:29;;;;;;;8.07;7.43;;;;;;;17.73;25.97;99383.03;5072712;28;20227;-76
2023/04/07 11:38:58;;;;;;;7.07;6.57;;;;;;;17.53;26.21;99387.28;5072379;28;20192;-77